createdAt,value
2023-01-19T00:00:57.894Z,87.95
2023-01-19T00:03:24.830Z,87.63
2023-01-19T00:05:52.702Z,87.20
2023-01-19T00:08:19.645Z,87.44
2023-01-19T00:10:48.506Z,87.39
2023-01-19T00:13:16.159Z,88.03
2023-01-19T00:15:45.042Z,88.06
2023-01-19T00:18:12.095Z,88.03
2023-01-19T00:20:40.134Z,87.97
2023-01-19T00:23:10.562Z,88.00
2023-01-19T00:25:42.835Z,88.40
2023-01-19T00:28:15.326Z,88.16
2023-01-19T00:30:42.571Z,88.62
2023-01-19T00:33:10.741Z,88.33
2023-01-19T00:35:37.630Z,88.52
2023-01-19T00:38:04.685Z,88.11
2023-01-19T00:40:31.677Z,89.18
2023-01-19T00:43:00.267Z,89.34
2023-01-19T00:45:27.551Z,89.37
2023-01-19T00:47:57.504Z,89.30
2023-01-19T00:50:26.363Z,89.26
2023-01-19T00:52:54.937Z,89.53
2023-01-19T00:55:22.915Z,89.85
2023-01-19T00:57:50.176Z,90.16
2023-01-19T01:00:19.835Z,89.85
2023-01-19T01:02:48.878Z,90.19
2023-01-19T01:05:16.983Z,89.51
2023-01-19T01:07:45.459Z,88.95
2023-01-19T01:10:15.594Z,88.60
2023-01-19T01:12:56.105Z,88.97
2023-01-19T01:15:27.527Z,89.39
2023-01-19T01:17:55.015Z,88.85
2023-01-19T01:20:28.136Z,89.20
2023-01-19T01:22:56.729Z,88.95
2023-01-19T01:25:26.117Z,89.42
2023-01-19T01:27:53.865Z,89.96
2023-01-19T01:30:21.423Z,89.64
2023-01-19T01:32:49.081Z,89.13
2023-01-19T01:35:17.072Z,89.19
2023-01-19T01:37:44.148Z,88.82
2023-01-19T01:40:14.198Z,89.11
2023-01-19T01:42:42.693Z,88.56
2023-01-19T01:45:31.616Z,88.66
2023-01-19T01:48:13.091Z,88.54
2023-01-19T01:51:10.171Z,88.29
2023-01-19T01:53:38.623Z,87.75
2023-01-19T01:56:10.373Z,87.69
2023-01-19T01:58:38.994Z,87.93
2023-01-19T02:01:25.854Z,88.03
2023-01-19T02:03:57.394Z,88.25
2023-01-19T02:06:24.896Z,87.75
2023-01-19T02:09:21.488Z,87.76
2023-01-19T02:12:08.077Z,87.82
2023-01-19T02:14:39.014Z,88.13
2023-01-19T02:17:06.883Z,87.83
2023-01-19T02:19:42.339Z,87.82
2023-01-19T02:22:24.070Z,87.52
2023-01-19T02:24:51.701Z,87.07
2023-01-19T02:27:19.483Z,87.44
2023-01-19T02:29:46.544Z,86.91
2023-01-19T02:32:13.463Z,86.97
2023-01-19T02:34:40.570Z,86.93
2023-01-19T02:37:13.310Z,87.47
2023-01-19T02:39:52.351Z,87.00
2023-01-19T02:42:32.422Z,87.36
2023-01-19T02:45:00.092Z,87.27
2023-01-19T02:47:27.256Z,87.15
2023-01-19T02:49:58.715Z,87.34
2023-01-19T02:52:26.951Z,87.31
2023-01-19T02:55:18.249Z,87.07
2023-01-19T02:57:53.401Z,87.51
2023-01-19T03:00:33.185Z,87.49
2023-01-19T03:03:13.515Z,86.95
2023-01-19T03:05:46.119Z,86.39
2023-01-19T03:08:57.789Z,86.37
2023-01-19T03:11:30.479Z,86.28
2023-01-19T03:14:22.186Z,86.33
2023-01-19T03:16:58.374Z,86.11
2023-01-19T03:19:28.901Z,86.46
2023-01-19T03:22:05.626Z,86.07
2023-01-19T03:24:38.462Z,86.17
2023-01-19T03:27:20.846Z,85.48
2023-01-19T03:29:53.265Z,86.37
2023-01-19T03:32:24.134Z,86.37
2023-01-19T03:34:53.682Z,86.76
2023-01-19T03:37:21.690Z,86.78
2023-01-19T03:39:48.757Z,86.58
2023-01-19T03:42:17.969Z,87.30
2023-01-19T03:44:46.004Z,87.30
2023-01-19T03:47:14.824Z,87.13
2023-01-19T03:49:44.303Z,87.44
2023-01-19T03:52:13.018Z,87.50
2023-01-19T03:54:41.129Z,87.63
2023-01-19T03:57:08.347Z,87.97
2023-01-19T03:59:35.250Z,88.29
2023-01-19T04:02:02.336Z,88.40
2023-01-19T04:04:29.316Z,88.28
2023-01-19T04:06:56.181Z,88.26
2023-01-19T04:09:23.041Z,88.25
2023-01-19T04:11:49.925Z,88.99
2023-01-19T04:14:16.986Z,88.75
2023-01-19T04:16:43.789Z,88.80
2023-01-19T04:19:10.744Z,88.98
2023-01-19T04:21:37.585Z,88.89
2023-01-19T04:24:04.655Z,88.94
2023-01-19T04:26:31.471Z,88.55
2023-01-19T04:28:58.560Z,88.85
2023-01-19T04:31:25.482Z,88.98
2023-01-19T04:33:52.337Z,88.96
2023-01-19T04:36:19.242Z,89.05
2023-01-19T04:38:46.714Z,89.06
2023-01-19T04:41:13.843Z,89.07
2023-01-19T04:43:41.016Z,89.26
2023-01-19T04:46:07.877Z,89.30
2023-01-19T04:48:35.087Z,89.65
2023-01-19T04:51:02.260Z,89.60
2023-01-19T04:53:29.099Z,89.99
2023-01-19T04:55:55.988Z,90.28
2023-01-19T04:58:23.260Z,90.29
2023-01-19T05:00:51.314Z,90.33
2023-01-19T05:03:19.563Z,89.90
2023-01-19T05:05:46.826Z,89.85
2023-01-19T05:08:13.890Z,90.10
2023-01-19T05:10:40.785Z,90.17
2023-01-19T05:13:08.869Z,90.08
2023-01-19T05:15:35.747Z,90.11
2023-01-19T05:18:02.690Z,89.75
2023-01-19T05:20:29.688Z,89.92
2023-01-19T05:22:56.553Z,89.29
2023-01-19T05:25:23.541Z,88.99
2023-01-19T05:27:50.533Z,88.96
2023-01-19T05:30:17.772Z,88.92
2023-01-19T05:32:44.819Z,89.24
2023-01-19T05:35:13.501Z,89.33
2023-01-19T05:37:40.594Z,89.76
2023-01-19T05:40:08.518Z,88.52
2023-01-19T05:42:37.270Z,88.22
2023-01-19T05:45:04.987Z,88.08
2023-01-19T05:47:32.074Z,87.63
2023-01-19T05:49:59.240Z,87.44
2023-01-19T05:52:26.119Z,87.59
2023-01-19T05:54:54.729Z,87.07
2023-01-19T05:57:22.630Z,87.10
2023-01-19T05:59:49.849Z,87.11
2023-01-19T06:02:16.831Z,87.14
2023-01-19T06:04:43.624Z,87.34
2023-01-19T06:07:10.628Z,87.13
2023-01-19T06:09:37.502Z,87.38
2023-01-19T06:12:04.847Z,87.66
2023-01-19T06:14:32.565Z,87.71
2023-01-19T06:16:59.551Z,87.49
2023-01-19T06:19:26.512Z,87.87
2023-01-19T06:21:53.357Z,87.67
2023-01-19T06:24:20.567Z,87.44
2023-01-19T06:26:47.519Z,87.46
2023-01-19T06:29:14.738Z,86.80
2023-01-19T06:31:42.496Z,87.04
2023-01-19T06:34:09.946Z,86.46
2023-01-19T06:36:37.052Z,86.62
2023-01-19T06:39:05.943Z,86.52
2023-01-19T06:41:34.084Z,86.28
2023-01-19T06:44:01.467Z,86.58
2023-01-19T06:46:28.777Z,86.67
2023-01-19T06:48:55.943Z,86.46
2023-01-19T06:51:24.067Z,86.20
2023-01-19T06:53:51.022Z,86.31
2023-01-19T06:56:17.940Z,86.65
2023-01-19T06:58:47.643Z,86.31
2023-01-19T07:01:14.896Z,86.74
2023-01-19T07:03:41.806Z,86.86
2023-01-19T07:06:09.053Z,86.71
2023-01-19T07:08:37.048Z,85.93
2023-01-19T07:11:25.978Z,85.80
2023-01-19T07:13:57.037Z,86.31
2023-01-19T07:16:24.368Z,85.32
2023-01-19T07:18:52.057Z,84.97
2023-01-19T07:21:19.391Z,84.60
2023-01-19T07:23:49.810Z,85.14
2023-01-19T07:26:19.954Z,84.15
2023-01-19T07:28:48.317Z,83.22
2023-01-19T07:31:16.041Z,82.97
2023-01-19T07:33:42.962Z,82.16
2023-01-19T07:36:10.471Z,81.56
2023-01-19T07:38:37.944Z,81.01
2023-01-19T07:41:07.644Z,81.02
2023-01-19T07:43:34.987Z,80.19
2023-01-19T07:46:05.200Z,79.74
2023-01-19T07:48:32.392Z,78.51
2023-01-19T07:51:01.252Z,78.09
2023-01-19T07:53:28.305Z,78.76
2023-01-19T07:55:56.686Z,78.32
2023-01-19T07:58:25.143Z,77.66
2023-01-19T08:00:52.461Z,76.63
2023-01-19T08:03:19.363Z,76.46
2023-01-19T08:05:51.324Z,74.51
2023-01-19T08:08:18.474Z,75.47
2023-01-19T08:10:46.458Z,74.71
2023-01-19T08:13:13.520Z,74.71
2023-01-19T08:15:40.551Z,74.01
2023-01-19T08:18:09.957Z,74.49
2023-01-19T08:20:37.241Z,73.28
2023-01-19T08:23:05.544Z,73.20
2023-01-19T08:25:38.215Z,72.97
2023-01-19T08:28:07.039Z,72.45
2023-01-19T08:30:34.506Z,71.95
2023-01-19T08:33:04.600Z,70.60
2023-01-19T08:35:33.031Z,71.15
2023-01-19T08:38:01.354Z,70.31
2023-01-19T08:40:29.904Z,69.60
2023-01-19T08:43:04.808Z,70.06
2023-01-19T08:45:31.722Z,69.06
2023-01-19T08:47:59.526Z,68.74
2023-01-19T08:50:30.687Z,69.15
2023-01-19T08:52:58.802Z,68.19
2023-01-19T08:55:26.815Z,68.73
2023-01-19T08:57:57.876Z,68.69
2023-01-19T09:00:25.577Z,67.92
2023-01-19T09:02:52.920Z,68.07
2023-01-19T09:05:20.175Z,67.92
2023-01-19T09:07:51.803Z,67.43
2023-01-19T09:10:19.210Z,68.09
2023-01-19T09:12:46.574Z,67.86
2023-01-19T09:15:17.467Z,67.39
2023-01-19T09:17:45.622Z,67.38
2023-01-19T09:20:14.027Z,67.86
2023-01-19T09:22:40.968Z,66.90
2023-01-19T09:25:08.601Z,67.30
2023-01-19T09:27:36.154Z,66.41
2023-01-19T09:30:04.380Z,67.00
2023-01-19T09:32:31.398Z,66.02
2023-01-19T09:34:58.475Z,66.07
2023-01-19T09:37:25.392Z,65.87
2023-01-19T09:39:52.384Z,66.33
2023-01-19T09:42:44.954Z,64.46
2023-01-19T09:45:18.046Z,65.26
2023-01-19T09:47:47.019Z,64.43
2023-01-19T09:50:28.631Z,63.88
2023-01-19T09:53:14.007Z,63.24
2023-01-19T09:55:42.765Z,63.36
2023-01-19T09:58:15.777Z,63.19
2023-01-19T10:00:47.913Z,62.36
2023-01-19T10:03:16.693Z,63.41
2023-01-19T10:05:55.658Z,63.12
2023-01-19T10:08:42.189Z,62.88
2023-01-19T10:11:51.263Z,63.79
2023-01-19T10:15:07.938Z,63.38
2023-01-19T10:17:56.320Z,62.86
2023-01-19T10:20:33.495Z,62.62
2023-01-19T10:23:02.166Z,63.30
2023-01-19T10:25:30.197Z,63.19
2023-01-19T10:28:00.769Z,62.80
2023-01-19T10:30:30.281Z,62.54
2023-01-19T10:32:57.314Z,62.78
2023-01-19T10:35:25.217Z,62.60
2023-01-19T10:38:02.814Z,61.90
2023-01-19T10:40:57.486Z,62.05
2023-01-19T10:43:44.797Z,61.53
2023-01-19T10:46:21.449Z,61.73
2023-01-19T10:48:50.752Z,61.65
2023-01-19T10:51:18.150Z,61.24
2023-01-19T10:54:00.485Z,62.29
2023-01-19T10:56:38.567Z,62.13
2023-01-19T10:59:07.115Z,62.20
2023-01-19T11:01:37.178Z,62.46
2023-01-19T11:04:27.544Z,62.73
2023-01-19T11:07:14.096Z,61.83
2023-01-19T11:09:40.949Z,61.68
2023-01-19T11:12:16.974Z,61.42
2023-01-19T11:14:44.078Z,61.95
2023-01-19T11:17:28.158Z,61.17
2023-01-19T11:20:00.958Z,60.92
2023-01-19T11:22:33.723Z,61.75
2023-01-19T11:25:03.482Z,61.40
2023-01-19T11:27:32.677Z,60.93
2023-01-19T11:30:22.047Z,60.83
2023-01-19T11:32:49.459Z,61.27
2023-01-19T11:35:50.047Z,60.65
2023-01-19T11:38:23.398Z,60.44
2023-01-19T11:40:58.318Z,59.43
2023-01-19T11:43:39.740Z,59.08
2023-01-19T11:46:15.495Z,59.34
2023-01-19T11:49:04.528Z,59.67
2023-01-19T11:51:45.179Z,58.84
2023-01-19T11:54:24.099Z,58.47
2023-01-19T11:56:52.322Z,58.12
2023-01-19T11:59:19.985Z,58.88
2023-01-19T12:01:56.410Z,58.99
2023-01-19T12:04:32.164Z,59.60
2023-01-19T12:07:05.150Z,58.55
2023-01-19T12:09:50.971Z,58.94
2023-01-19T12:12:31.268Z,57.72
2023-01-19T12:15:29.149Z,57.88
2023-01-19T12:18:00.918Z,57.27
2023-01-19T12:20:44.517Z,57.14
2023-01-19T12:23:11.345Z,57.50
2023-01-19T12:25:54.944Z,57.36
2023-01-19T12:28:28.742Z,57.37
2023-01-19T12:30:57.388Z,57.71
2023-01-19T12:33:39.114Z,57.72
2023-01-19T12:36:10.244Z,57.76
2023-01-19T12:38:46.074Z,57.39
2023-01-19T12:41:17.255Z,57.28
2023-01-19T12:43:44.404Z,57.70
2023-01-19T12:46:29.000Z,57.99
2023-01-19T12:49:20.327Z,57.33
2023-01-19T12:51:49.076Z,57.54
2023-01-19T12:54:28.867Z,57.37
2023-01-19T12:57:09.244Z,57.47
2023-01-19T12:59:39.268Z,57.13
2023-01-19T13:02:18.115Z,57.19
2023-01-19T13:05:07.113Z,57.35
2023-01-19T13:08:02.026Z,57.61
2023-01-19T13:10:54.080Z,57.69
2023-01-19T13:13:33.279Z,56.96
2023-01-19T13:16:20.205Z,57.04
2023-01-19T13:18:51.807Z,57.19
2023-01-19T13:21:33.066Z,57.39
2023-01-19T13:24:06.162Z,57.32
2023-01-19T13:26:40.646Z,56.86
2023-01-19T13:29:37.497Z,57.01
2023-01-19T13:32:13.028Z,57.24
2023-01-19T13:34:44.509Z,56.91
2023-01-19T13:37:18.356Z,57.02
2023-01-19T13:39:50.236Z,57.65
2023-01-19T13:42:25.031Z,58.27
2023-01-19T13:44:54.723Z,58.25
2023-01-19T13:47:43.943Z,58.47
2023-01-19T13:50:21.530Z,59.02
2023-01-19T13:52:53.983Z,59.64
2023-01-19T13:55:21.069Z,59.62
2023-01-19T13:57:50.431Z,59.48
2023-01-19T14:00:27.998Z,59.46
2023-01-19T14:03:24.061Z,59.17
2023-01-19T14:05:53.303Z,59.34
2023-01-19T14:08:22.475Z,59.05
2023-01-19T14:10:52.510Z,58.88
2023-01-19T14:13:23.418Z,59.67
2023-01-19T14:15:55.733Z,59.80
2023-01-19T14:18:25.563Z,60.68
2023-01-19T14:20:55.921Z,60.85
2023-01-19T14:23:47.739Z,60.70
2023-01-19T14:26:53.165Z,59.45
2023-01-19T14:29:31.737Z,60.07
2023-01-19T14:32:15.804Z,59.81
2023-01-19T14:34:48.636Z,59.90
2023-01-19T14:37:22.322Z,60.36
2023-01-19T14:39:56.762Z,60.31
2023-01-19T14:42:37.440Z,60.43
2023-01-19T14:45:20.688Z,60.42
2023-01-19T14:47:56.488Z,60.73
2023-01-19T14:50:25.466Z,60.84
2023-01-19T14:52:55.064Z,61.32
2023-01-19T14:55:49.877Z,61.66
2023-01-19T14:58:19.574Z,61.72
2023-01-19T15:00:48.326Z,62.16
2023-01-19T15:03:15.707Z,62.54
2023-01-19T15:05:44.970Z,62.38
2023-01-19T15:08:16.932Z,62.55
2023-01-19T15:10:44.728Z,62.51
2023-01-19T15:13:19.163Z,63.10
2023-01-19T15:15:46.452Z,63.20
2023-01-19T15:18:19.797Z,63.66
2023-01-19T15:20:49.226Z,63.36
2023-01-19T15:23:16.055Z,63.29
2023-01-19T15:25:42.981Z,63.10
2023-01-19T15:28:20.095Z,63.46
2023-01-19T15:30:47.129Z,63.66
2023-01-19T15:33:26.956Z,64.29
2023-01-19T15:35:54.195Z,64.21
2023-01-19T15:38:21.179Z,64.65
2023-01-19T15:40:51.436Z,65.04
2023-01-19T15:43:18.747Z,64.99
2023-01-19T15:46:00.564Z,65.04
2023-01-19T15:48:27.429Z,65.56
2023-01-19T15:50:54.376Z,65.64
2023-01-19T15:53:23.906Z,65.73
2023-01-19T15:55:53.160Z,66.09
2023-01-19T15:58:20.746Z,66.06
2023-01-19T16:05:55.940Z,66.45
2023-01-19T16:08:22.946Z,66.25
2023-01-19T16:10:49.765Z,66.28
2023-01-19T16:13:16.665Z,66.31
2023-01-19T16:15:43.628Z,66.05
2023-01-19T16:18:12.021Z,66.34
2023-01-19T16:20:39.003Z,66.37
2023-01-19T16:23:21.127Z,66.82
2023-01-19T16:26:07.985Z,66.88
2023-01-19T16:28:36.458Z,67.35
2023-01-19T16:31:04.425Z,67.38
2023-01-19T16:33:31.304Z,67.41
2023-01-19T16:35:58.461Z,67.47
2023-01-19T16:38:28.542Z,67.32
2023-01-19T16:40:55.457Z,67.56
2023-01-19T16:43:22.400Z,67.56
2023-01-19T16:46:00.784Z,67.63
2023-01-19T16:48:28.502Z,67.99
2023-01-19T16:51:05.321Z,68.10
2023-01-19T16:53:37.355Z,68.72
2023-01-19T16:56:13.738Z,68.53
2023-01-19T16:58:47.683Z,68.58
2023-01-19T17:01:20.363Z,68.41
2023-01-19T17:03:48.010Z,69.16
2023-01-19T17:06:22.828Z,69.00
2023-01-19T17:08:51.310Z,69.29
2023-01-19T17:11:24.437Z,70.13
2023-01-19T17:13:57.753Z,69.82
2023-01-19T17:16:25.300Z,69.96
2023-01-19T17:18:52.922Z,70.20
2023-01-19T17:21:20.283Z,70.03
2023-01-19T17:23:49.525Z,69.84
2023-01-19T17:26:17.805Z,70.18
2023-01-19T17:28:44.761Z,70.47
2023-01-19T17:31:14.954Z,70.45
2023-01-19T17:33:45.139Z,70.77
2023-01-19T17:36:14.898Z,71.07
2023-01-19T17:38:42.503Z,70.93
2023-01-19T17:41:27.253Z,71.07
2023-01-19T17:43:56.324Z,71.08
2023-01-19T17:46:25.809Z,70.40
2023-01-19T17:48:59.981Z,70.21
2023-01-19T17:51:28.124Z,70.09
2023-01-19T17:53:55.260Z,69.88
2023-01-19T17:56:29.953Z,70.21
2023-01-19T17:58:58.245Z,70.76
2023-01-19T18:01:27.653Z,70.81
2023-01-19T18:03:55.373Z,70.60
2023-01-19T18:06:22.641Z,70.29
2023-01-19T18:08:50.694Z,70.58
2023-01-19T18:11:19.321Z,70.76
2023-01-19T18:13:48.391Z,70.41
2023-01-19T18:16:19.462Z,70.42
2023-01-19T18:18:46.386Z,70.87
2023-01-19T18:21:14.787Z,70.09
2023-01-19T18:23:45.835Z,70.08
2023-01-19T18:26:15.393Z,70.17
2023-01-19T18:28:42.521Z,70.56
2023-01-19T18:31:11.558Z,70.44
2023-01-19T18:33:39.042Z,70.96
2023-01-19T18:36:06.612Z,70.41
2023-01-19T18:38:34.901Z,70.67
2023-01-19T18:41:08.046Z,70.80
2023-01-19T18:43:36.690Z,70.95
2023-01-19T18:46:04.122Z,70.89
2023-01-19T18:48:32.149Z,71.15
2023-01-19T18:51:05.763Z,71.31
2023-01-19T18:53:33.195Z,71.33
2023-01-19T18:56:04.434Z,71.85
2023-01-19T18:58:33.786Z,72.42
2023-01-19T19:01:02.793Z,71.43
2023-01-19T19:03:31.755Z,72.02
2023-01-19T19:06:05.304Z,72.81
2023-01-19T19:08:34.740Z,72.98
2023-01-19T19:11:03.201Z,72.83
2023-01-19T19:13:31.482Z,72.33
2023-01-19T19:16:07.862Z,72.42
2023-01-19T19:18:37.604Z,72.53
2023-01-19T19:21:10.741Z,72.53
2023-01-19T19:23:39.477Z,73.08
2023-01-19T19:26:10.966Z,73.47
2023-01-19T19:28:40.035Z,72.78
2023-01-19T19:31:12.937Z,73.05
2023-01-19T19:33:41.858Z,73.12
2023-01-19T19:36:11.409Z,72.85
2023-01-19T19:38:42.342Z,73.10
2023-01-19T19:41:15.312Z,72.34
2023-01-19T19:43:44.588Z,72.57
2023-01-19T19:46:17.283Z,72.08
2023-01-19T19:48:46.117Z,72.67
2023-01-19T19:51:19.076Z,72.52
2023-01-19T19:53:51.372Z,72.22
2023-01-19T19:56:22.990Z,72.25
2023-01-19T19:58:53.127Z,72.72
2023-01-19T20:01:33.138Z,72.00
2023-01-19T20:04:10.029Z,71.72
2023-01-19T20:06:41.321Z,71.93
2023-01-19T20:09:13.346Z,71.94
2023-01-19T20:11:44.196Z,71.69
2023-01-19T20:14:17.703Z,71.62
2023-01-19T20:16:45.429Z,72.04
2023-01-19T20:19:13.781Z,72.22
2023-01-19T20:21:43.408Z,72.80
2023-01-19T20:24:20.348Z,72.74
2023-01-19T20:26:53.764Z,72.60
2023-01-19T20:29:22.128Z,72.65
2023-01-19T20:31:58.810Z,73.02
2023-01-19T20:34:32.935Z,72.47
2023-01-19T20:37:02.195Z,72.33
2023-01-19T20:39:35.314Z,72.11
2023-01-19T20:42:03.275Z,72.02
2023-01-19T20:44:30.381Z,72.18
2023-01-19T20:46:57.492Z,72.33
2023-01-19T20:49:24.315Z,72.78
2023-01-19T20:51:52.350Z,73.23
2023-01-19T20:54:22.847Z,73.24
2023-01-19T20:56:50.002Z,73.68
2023-01-19T20:59:17.722Z,73.37
2023-01-19T21:01:46.030Z,73.71
2023-01-19T21:04:13.161Z,73.62
2023-01-19T21:06:44.355Z,73.82
2023-01-19T21:09:11.822Z,73.70
2023-01-19T21:11:41.611Z,73.52
2023-01-19T21:14:08.760Z,73.55
2023-01-19T21:16:36.382Z,73.31
2023-01-19T21:19:04.157Z,73.23
2023-01-19T21:21:32.909Z,73.25
2023-01-19T21:24:02.215Z,73.11
2023-01-19T21:26:33.754Z,73.62
2023-01-19T21:29:02.413Z,73.56
2023-01-19T21:31:30.371Z,74.05
2023-01-19T21:33:57.887Z,73.75
2023-01-19T21:36:25.364Z,73.93
2023-01-19T21:38:52.617Z,74.03
2023-01-19T21:41:19.891Z,74.48
2023-01-19T21:43:48.110Z,74.41
2023-01-19T21:46:20.788Z,74.45
2023-01-19T21:48:48.208Z,74.42
2023-01-19T21:51:15.829Z,74.42
2023-01-19T21:53:43.091Z,74.58
2023-01-19T21:56:11.655Z,74.55
2023-01-19T21:58:38.915Z,74.85
2023-01-19T22:01:13.883Z,74.57
2023-01-19T22:03:41.758Z,75.00
2023-01-19T22:06:13.572Z,75.11
2023-01-19T22:08:41.180Z,75.28
2023-01-19T22:11:10.568Z,75.42
2023-01-19T22:13:41.225Z,75.69
2023-01-19T22:16:12.370Z,76.07
2023-01-19T22:18:41.955Z,75.82
2023-01-19T22:21:08.950Z,75.87
2023-01-19T22:23:36.340Z,75.48
2023-01-19T22:26:04.447Z,76.00
2023-01-19T22:28:31.568Z,75.46
2023-01-19T22:31:15.582Z,75.54
2023-01-19T22:33:43.566Z,75.72
2023-01-19T22:36:13.692Z,75.88
2023-01-19T22:38:41.177Z,76.09
2023-01-19T22:41:12.882Z,75.64
2023-01-19T22:43:39.833Z,75.29
2023-01-19T22:46:08.650Z,75.29
2023-01-19T22:48:36.010Z,75.01
2023-01-19T22:51:03.738Z,74.95
2023-01-19T22:53:31.881Z,74.72
2023-01-19T22:55:58.746Z,73.98
2023-01-19T22:58:25.561Z,73.72
2023-01-19T23:00:52.583Z,74.13
2023-01-19T23:03:19.562Z,73.23
2023-01-19T23:05:46.526Z,72.98
2023-01-19T23:08:13.462Z,71.97
2023-01-19T23:10:40.335Z,72.40
2023-01-19T23:13:07.226Z,71.84
2023-01-19T23:15:34.935Z,71.98
2023-01-19T23:18:01.933Z,72.30
2023-01-19T23:20:28.829Z,72.88
2023-01-19T23:22:55.795Z,72.67
2023-01-19T23:25:22.683Z,73.15
2023-01-19T23:27:49.635Z,73.19
2023-01-19T23:30:17.203Z,72.96
2023-01-19T23:32:48.315Z,72.97
2023-01-19T23:35:16.311Z,73.05
2023-01-19T23:37:43.348Z,73.78
2023-01-19T23:40:11.240Z,73.25
2023-01-19T23:42:38.228Z,73.33
2023-01-19T23:45:05.625Z,73.30
2023-01-19T23:47:35.648Z,73.23
2023-01-19T23:50:05.799Z,73.26
2023-01-19T23:52:32.653Z,73.37
2023-01-19T23:54:59.518Z,73.38
2023-01-19T23:57:26.981Z,73.07
2023-01-19T23:59:53.751Z,73.09
